Time;durP1;ratioP1;P1;durP2;ratioP2;P2;SDS_P1;SDS_P2;PMS_P1;PMS_P2;Temp;Humidity;BMP_temperature;BMP_pressure;BME280_temperature;BME280_humidity;BME280_pressure;Samples;Min_cycle;Max_cycle;Signal;HPM_P1;HPM_P2
2022/12/03 00:00:49;;;;;;;4.22;3.28;;;;;;;;;;4531055;28;20161;-66
2022/12/03 00:02:59;;;;;;;4.63;3.40;;;;;;;;;;4531942;28;20041;-66
2022/12/03 00:05:10;;;;;;;5.13;3.47;;;;;;;;;;4516318;28;20048;-66
2022/12/03 00:07:20;;;;;;;4.80;3.58;;;;;;;;;;4533543;28;20029;-66
2022/12/03 00:09:30;;;;;;;4.47;3.53;;;;;;;;;;4518309;28;20604;-65
2022/12/03 00:11:40;;;;;;;4.82;3.58;;;;;;;;;;4531900;28;20071;-66
2022/12/03 00:13:51;;;;;;;4.55;3.60;;;;;;;;;;4531851;28;20645;-66
2022/12/03 00:16:01;;;;;;;4.63;3.40;;;;;;;;;;4530891;28;20029;-66
2022/12/03 00:18:11;;;;;;;4.63;3.67;;;;;;;;;;4530010;28;20062;-65
2022/12/03 00:20:23;;;;;;;5.60;3.78;;;;;;;;;;4530336;28;20096;-65
2022/12/03 00:22:33;;;;;;;4.72;3.45;;;;;;;;;;4522656;28;20547;-67
2022/12/03 00:24:43;;;;;;;5.68;3.70;;;;;;;;;;4531261;28;20037;-67
2022/12/03 00:26:53;;;;;;;4.72;3.55;;;;;;;;;;4532836;28;20033;-67
2022/12/03 00:29:04;;;;;;;4.75;3.60;;;;;;;;;;4513522;28;20061;-67
2022/12/03 00:31:14;;;;;;;5.15;3.70;;;;;;;;;;4530691;28;20038;-67
2022/12/03 00:33:24;;;;;;;4.47;3.40;;;;;;;;;;4532782;28;20073;-67
2022/12/03 00:35:35;;;;;;;4.30;3.38;;;;;;;;;;4532529;28;20045;-67
2022/12/03 00:37:45;;;;;;;4.60;3.40;;;;;;;;;;4531564;28;20076;-68
2022/12/03 00:39:55;;;;;;;4.75;3.55;;;;;;;;;;4532475;28;20029;-67
2022/12/03 00:42:06;;;;;;;5.07;3.47;;;;;;;;;;4532345;28;20068;-67
2022/12/03 00:44:16;;;;;;;5.25;3.50;;;;;;;;;;4531762;28;20043;-65
2022/12/03 00:46:27;;;;;;;5.10;3.60;;;;;;;;;;4531871;28;20532;-65
2022/12/03 00:48:37;;;;;;;4.25;3.40;;;;;;;;;;4531648;28;20024;-66
2022/12/03 00:50:47;;;;;;;4.78;3.75;;;;;;;;;;4532230;28;20049;-65
2022/12/03 00:52:58;;;;;;;5.35;3.72;;;;;;;;;;4532277;28;20048;-65
2022/12/03 00:55:08;;;;;;;4.95;3.28;;;;;;;;;;4532480;28;20025;-66
2022/12/03 00:57:18;;;;;;;5.22;3.92;;;;;;;;;;4530627;28;20452;-66
2022/12/03 00:59:29;;;;;;;5.15;3.45;;;;;;;;;;4533588;28;20072;-66
2022/12/03 01:01:39;;;;;;;5.30;3.50;;;;;;;;;;4531686;28;20034;-65
2022/12/03 01:03:49;;;;;;;4.55;3.47;;;;;;;;;;4532413;28;20033;-65
2022/12/03 01:05:59;;;;;;;4.38;3.38;;;;;;;;;;4532330;28;20588;-66
2022/12/03 01:08:10;;;;;;;5.35;3.75;;;;;;;;;;4530879;28;20041;-65
2022/12/03 01:10:20;;;;;;;5.18;3.80;;;;;;;;;;4530359;28;20069;-65
2022/12/03 01:12:30;;;;;;;4.72;3.50;;;;;;;;;;4532410;28;20694;-66
2022/12/03 01:14:41;;;;;;;5.05;3.60;;;;;;;;;;4530025;28;20492;-65
2022/12/03 01:16:51;;;;;;;6.20;3.90;;;;;;;;;;4529429;28;20148;-66
2022/12/03 01:19:02;;;;;;;5.20;3.80;;;;;;;;;;4531412;28;20057;-66
2022/12/03 01:21:12;;;;;;;5.07;3.80;;;;;;;;;;4530972;28;20540;-66
2022/12/03 01:23:22;;;;;;;5.45;3.65;;;;;;;;;;4531684;28;20036;-66
2022/12/03 01:25:33;;;;;;;4.90;3.60;;;;;;;;;;4515411;28;20478;-66
2022/12/03 01:27:43;;;;;;;5.53;3.92;;;;;;;;;;4530348;28;20112;-66
2022/12/03 01:29:54;;;;;;;5.65;3.80;;;;;;;;;;4530575;28;20041;-66
2022/12/03 01:32:17;;;;;;;4.63;3.25;;;;;;;;;;4516014;28;20081;-66
2022/12/03 01:34:27;;;;;;;5.88;3.95;;;;;;;;;;4531247;28;20033;-66
2022/12/03 01:36:37;;;;;;;5.18;3.58;;;;;;;;;;4531847;28;20045;-66
2022/12/03 01:38:48;;;;;;;5.55;4.13;;;;;;;;;;4528718;28;20033;-66
2022/12/03 01:40:58;;;;;;;5.55;3.90;;;;;;;;;;4529430;28;20504;-66
2022/12/03 01:43:08;;;;;;;5.30;3.78;;;;;;;;;;4529241;28;20520;-66
2022/12/03 01:45:21;;;;;;;5.63;3.92;;;;;;;;;;4530838;28;20048;-66
2022/12/03 01:47:33;;;;;;;5.00;3.90;;;;;;;;;;4531295;28;20040;-66
2022/12/03 01:49:43;;;;;;;5.60;3.92;;;;;;;;;;4531118;28;20103;-66
2022/12/03 01:51:54;;;;;;;5.25;3.53;;;;;;;;;;4531635;28;20080;-67
2022/12/03 01:54:04;;;;;;;4.60;3.55;;;;;;;;;;4531099;28;20025;-65
2022/12/03 01:56:15;;;;;;;5.82;4.20;;;;;;;;;;4532318;28;20033;-64
2022/12/03 01:58:27;;;;;;;5.85;3.95;;;;;;;;;;4529919;28;20057;-65
2022/12/03 02:00:37;;;;;;;5.95;3.83;;;;;;;;;;4532139;28;20592;-65
2022/12/03 02:02:49;;;;;;;5.75;4.05;;;;;;;;;;4531661;28;20033;-65
2022/12/03 02:05:00;;;;;;;5.65;4.18;;;;;;;;;;4530700;28;20113;-65
2022/12/03 02:07:19;;;;;;;5.28;3.88;;;;;;;;;;4532279;28;20096;-65
2022/12/03 02:09:30;;;;;;;5.22;3.72;;;;;;;;;;4532545;28;20844;-65
2022/12/03 02:11:44;;;;;;;5.20;3.90;;;;;;;;;;4511088;28;20041;-65
2022/12/03 02:13:57;;;;;;;5.55;4.00;;;;;;;;;;4528852;28;20633;-64
2022/12/03 02:16:08;;;;;;;5.28;4.03;;;;;;;;;;4515662;28;20054;-65
2022/12/03 02:18:18;;;;;;;6.68;4.20;;;;;;;;;;4530762;28;20033;-65
2022/12/03 02:20:31;;;;;;;6.50;4.40;;;;;;;;;;4530196;28;20037;-65
2022/12/03 02:23:00;;;;;;;5.40;3.83;;;;;;;;;;4529587;28;20038;-65
2022/12/03 02:25:15;;;;;;;5.43;4.07;;;;;;;;;;4531995;28;20842;-65
2022/12/03 02:27:26;;;;;;;5.93;3.90;;;;;;;;;;4529923;28;20045;-65
2022/12/03 02:29:36;;;;;;;4.85;3.80;;;;;;;;;;4531700;28;20029;-65
2022/12/03 02:31:46;;;;;;;5.35;4.10;;;;;;;;;;4528010;28;20045;-65
2022/12/03 02:33:57;;;;;;;5.90;4.30;;;;;;;;;;4528745;28;20131;-65
2022/12/03 02:36:07;;;;;;;5.95;4.40;;;;;;;;;;4528945;28;20092;-66
2022/12/03 02:38:21;;;;;;;5.43;3.97;;;;;;;;;;4530378;28;20029;-66
2022/12/03 02:40:32;;;;;;;5.35;3.88;;;;;;;;;;4530637;28;20124;-65
2022/12/03 02:42:44;;;;;;;5.70;4.25;;;;;;;;;;4531171;28;20520;-66
2022/12/03 02:44:55;;;;;;;5.18;3.97;;;;;;;;;;4530388;28;20044;-65
2022/12/03 02:47:05;;;;;;;5.43;3.97;;;;;;;;;;4529947;28;20049;-65
2022/12/03 02:49:15;;;;;;;7.03;4.10;;;;;;;;;;4529741;28;20040;-65
2022/12/03 02:51:26;;;;;;;6.18;4.20;;;;;;;;;;4532480;28;20045;-66
2022/12/03 02:53:41;;;;;;;5.82;3.85;;;;;;;;;;4529464;28;20033;-65
2022/12/03 02:55:52;;;;;;;5.28;3.80;;;;;;;;;;4529908;28;20045;-66
2022/12/03 02:58:03;;;;;;;5.60;3.92;;;;;;;;;;4530487;28;20042;-65
2022/12/03 03:00:14;;;;;;;6.05;4.45;;;;;;;;;;4528691;28;20037;-65
2022/12/03 03:02:27;;;;;;;5.60;3.85;;;;;;;;;;4530678;28;20616;-66
2022/12/03 03:04:37;;;;;;;5.53;3.92;;;;;;;;;;4529506;28;20124;-66
2022/12/03 03:06:48;;;;;;;5.97;4.40;;;;;;;;;;4514895;28;20048;-65
2022/12/03 03:08:58;;;;;;;5.82;4.10;;;;;;;;;;4527467;28;20034;-67
2022/12/03 03:11:09;;;;;;;6.30;4.25;;;;;;;;;;4529315;28;20444;-65
2022/12/03 03:13:19;;;;;;;5.53;3.63;;;;;;;;;;4530504;28;20509;-66
2022/12/03 03:15:30;;;;;;;5.95;4.03;;;;;;;;;;4530820;28;20041;-66
2022/12/03 03:17:41;;;;;;;5.55;3.92;;;;;;;;;;4514839;28;20042;-66
2022/12/03 03:19:51;;;;;;;6.10;4.30;;;;;;;;;;4528274;28;20087;-65
2022/12/03 03:22:01;;;;;;;5.63;3.90;;;;;;;;;;4518179;28;20090;-66
2022/12/03 03:24:12;;;;;;;5.50;4.05;;;;;;;;;;4531309;28;20022;-66
2022/12/03 03:26:23;;;;;;;5.05;3.72;;;;;;;;;;4527893;28;20088;-66
2022/12/03 03:28:34;;;;;;;5.63;4.15;;;;;;;;;;4529239;28;20048;-65
2022/12/03 03:30:45;;;;;;;4.97;3.97;;;;;;;;;;4529311;28;20251;-65
2022/12/03 03:32:56;;;;;;;5.65;3.97;;;;;;;;;;4529100;28;20041;-66
2022/12/03 03:35:07;;;;;;;5.70;4.05;;;;;;;;;;4531437;28;20033;-65
2022/12/03 03:37:17;;;;;;;5.95;4.10;;;;;;;;;;4528989;28;20076;-66
2022/12/03 03:39:28;;;;;;;5.82;4.07;;;;;;;;;;4514088;28;20454;-66
2022/12/03 03:41:39;;;;;;;5.63;3.95;;;;;;;;;;4527322;28;20041;-66
2022/12/03 03:43:49;;;;;;;5.00;4.18;;;;;;;;;;4528629;28;20027;-65
2022/12/03 03:46:00;;;;;;;5.13;3.65;;;;;;;;;;4530078;28;20047;-65
2022/12/03 03:48:11;;;;;;;6.00;4.10;;;;;;;;;;4529529;28;20041;-65
2022/12/03 03:50:22;;;;;;;5.45;3.78;;;;;;;;;;4514673;28;20026;-65
2022/12/03 03:52:32;;;;;;;5.78;3.90;;;;;;;;;;4531085;28;20037;-65
2022/12/03 03:54:43;;;;;;;5.13;3.80;;;;;;;;;;4533883;28;20093;-65
2022/12/03 03:56:53;;;;;;;6.70;4.45;;;;;;;;;;4532329;28;20045;-65
2022/12/03 03:59:04;;;;;;;5.97;4.30;;;;;;;;;;4531633;28;20028;-65
2022/12/03 04:01:16;;;;;;;5.18;4.32;;;;;;;;;;4522982;28;20043;-65
2022/12/03 04:03:27;;;;;;;5.32;4.00;;;;;;;;;;4531994;28;20073;-65
2022/12/03 04:05:38;;;;;;;6.13;4.40;;;;;;;;;;4533125;28;20065;-65
2022/12/03 04:07:48;;;;;;;5.80;4.22;;;;;;;;;;4531829;28;20120;-66
2022/12/03 04:09:58;;;;;;;6.20;4.32;;;;;;;;;;4529518;28;20140;-65
2022/12/03 04:14:39;;;;;;;5.78;4.20;;;;;;;;;;4530724;28;20033;-65
2022/12/03 04:16:49;;;;;;;5.97;4.20;;;;;;;;;;4530166;28;20046;-65
2022/12/03 04:18:59;;;;;;;5.80;4.53;;;;;;;;;;4531006;28;20067;-65
2022/12/03 04:23:43;;;;;;;6.15;4.20;;;;;;;;;;4529121;28;20038;-65
2022/12/03 04:30:51;;;;;;;7.00;4.72;;;;;;;;;;4532909;28;20045;-65
2022/12/03 04:35:41;;;;;;;5.55;4.07;;;;;;;;;;4530465;28;20029;-65
2022/12/03 04:37:52;;;;;;;6.40;4.47;;;;;;;;;;4532123;28;20043;-65
2022/12/03 04:40:59;;;;;;;5.85;4.43;;;;;;;;;;4530329;28;20483;-65
2022/12/03 04:42:35;;;;;;;6.03;3.97;;;;;;;;;;4531445;28;20037;-66
2022/12/03 04:44:46;;;;;;;6.03;3.92;;;;;;;;;;4516251;28;20030;-66
2022/12/03 04:46:56;;;;;;;5.75;4.10;;;;;;;;;;4531957;28;20041;-66
2022/12/03 04:49:06;;;;;;;5.43;3.95;;;;;;;;;;4512453;28;20026;-65
2022/12/03 04:51:16;;;;;;;6.07;3.92;;;;;;;;;;4530609;28;20045;-66
2022/12/03 04:53:27;;;;;;;5.55;4.20;;;;;;;;;;4530531;28;20033;-66
2022/12/03 04:55:37;;;;;;;6.55;4.40;;;;;;;;;;4530478;28;20397;-65
2022/12/03 04:57:47;;;;;;;6.40;4.43;;;;;;;;;;4531250;28;20072;-65
2022/12/03 04:59:57;;;;;;;6.00;4.40;;;;;;;;;;4529871;28;20045;-66
2022/12/03 05:02:08;;;;;;;5.20;3.92;;;;;;;;;;4531873;28;20136;-66
2022/12/03 05:04:18;;;;;;;6.75;4.20;;;;;;;;;;4532127;28;20033;-66
2022/12/03 05:06:28;;;;;;;6.30;4.43;;;;;;;;;;4531250;28;20026;-66
2022/12/03 05:08:39;;;;;;;6.82;4.60;;;;;;;;;;4532198;28;20092;-65
2022/12/03 05:10:49;;;;;;;6.13;4.35;;;;;;;;;;4530534;28;20040;-66
2022/12/03 05:12:59;;;;;;;7.07;4.53;;;;;;;;;;4530793;28;20061;-65
2022/12/03 05:15:10;;;;;;;6.40;4.70;;;;;;;;;;4531693;28;20034;-66
2022/12/03 05:17:20;;;;;;;5.93;4.28;;;;;;;;;;4530768;28;20041;-66
2022/12/03 05:21:59;;;;;;;5.93;4.22;;;;;;;;;;4531353;28;20041;-64
2022/12/03 05:24:09;;;;;;;5.90;4.22;;;;;;;;;;4530547;28;20029;-66
2022/12/03 05:26:20;;;;;;;6.20;4.50;;;;;;;;;;4530407;28;20042;-66
2022/12/03 05:28:30;;;;;;;5.60;4.38;;;;;;;;;;4530552;28;20116;-65
2022/12/03 05:30:40;;;;;;;6.70;4.70;;;;;;;;;;4530493;28;20243;-66
2022/12/03 05:32:51;;;;;;;6.10;4.20;;;;;;;;;;4532034;28;20087;-66
2022/12/03 05:35:01;;;;;;;5.75;4.13;;;;;;;;;;4530161;28;20075;-66
2022/12/03 05:37:11;;;;;;;6.10;4.40;;;;;;;;;;4515345;28;20081;-65
2022/12/03 05:39:22;;;;;;;6.47;4.45;;;;;;;;;;4529380;28;20036;-66
2022/12/03 05:44:03;;;;;;;5.78;4.20;;;;;;;;;;4500675;28;20051;-66
2022/12/03 05:46:13;;;;;;;6.05;4.22;;;;;;;;;;4529581;28;20994;-65
2022/12/03 05:48:23;;;;;;;6.82;4.43;;;;;;;;;;4529918;28;20041;-65
2022/12/03 05:50:35;;;;;;;7.22;4.50;;;;;;;;;;4531605;28;20045;-65
2022/12/03 05:52:57;;;;;;;5.80;4.45;;;;;;;;;;4529869;28;20048;-65
2022/12/03 05:55:07;;;;;;;7.22;5.00;;;;;;;;;;4529425;28;20026;-66
2022/12/03 05:57:18;;;;;;;7.13;4.97;;;;;;;;;;4529270;28;20100;-65
2022/12/03 05:59:28;;;;;;;6.75;4.95;;;;;;;;;;4531718;28;20451;-65
2022/12/03 06:01:38;;;;;;;6.65;4.57;;;;;;;;;;4512636;28;20103;-66
2022/12/03 06:03:49;;;;;;;6.10;4.78;;;;;;;;;;4529301;28;20033;-66
2022/12/03 06:05:59;;;;;;;6.28;4.50;;;;;;;;;;4529626;28;20045;-66
2022/12/03 06:08:09;;;;;;;7.22;5.20;;;;;;;;;;4530263;28;20029;-65
2022/12/03 06:10:25;;;;;;;6.85;4.68;;;;;;;;;;4530744;28;20041;-66
2022/12/03 06:12:35;;;;;;;6.97;4.80;;;;;;;;;;4531434;28;20032;-66
2022/12/03 06:14:45;;;;;;;7.07;5.00;;;;;;;;;;4530373;28;20492;-65
2022/12/03 06:16:56;;;;;;;7.13;4.97;;;;;;;;;;4530036;28;20049;-65
2022/12/03 06:19:06;;;;;;;7.75;5.07;;;;;;;;;;4531090;28;20052;-65
2022/12/03 06:21:16;;;;;;;6.70;4.97;;;;;;;;;;4530941;28;20033;-66
2022/12/03 06:23:27;;;;;;;6.75;4.82;;;;;;;;;;4527871;28;20132;-66
2022/12/03 06:25:38;;;;;;;6.88;4.95;;;;;;;;;;4529968;28;20044;-65
2022/12/03 06:27:48;;;;;;;6.88;5.10;;;;;;;;;;4529992;28;20032;-66
2022/12/03 06:29:58;;;;;;;7.30;4.68;;;;;;;;;;4530385;28;20516;-66
2022/12/03 06:32:09;;;;;;;6.47;4.90;;;;;;;;;;4520611;28;20034;-66
2022/12/03 06:34:19;;;;;;;6.65;4.50;;;;;;;;;;4529925;28;20052;-65
2022/12/03 06:36:30;;;;;;;8.48;5.68;;;;;;;;;;4529072;28;20148;-65
2022/12/03 06:38:40;;;;;;;6.30;4.53;;;;;;;;;;4529720;28;20029;-66
2022/12/03 06:40:50;;;;;;;7.47;5.32;;;;;;;;;;4527911;28;20049;-65
2022/12/03 06:43:01;;;;;;;7.38;4.95;;;;;;;;;;4528714;28;20115;-65
2022/12/03 06:45:11;;;;;;;7.40;5.10;;;;;;;;;;4529809;28;20049;-65
2022/12/03 06:47:21;;;;;;;7.03;4.82;;;;;;;;;;4530601;28;20116;-66
2022/12/03 06:49:32;;;;;;;6.72;4.78;;;;;;;;;;4529819;28;20041;-66
2022/12/03 06:51:42;;;;;;;6.70;4.85;;;;;;;;;;4529861;28;20345;-66
2022/12/03 06:53:52;;;;;;;6.93;4.78;;;;;;;;;;4530148;28;20124;-66
2022/12/03 06:56:03;;;;;;;6.32;4.63;;;;;;;;;;4530524;28;20033;-65
2022/12/03 06:58:13;;;;;;;6.35;4.63;;;;;;;;;;4529687;28;20052;-67
2022/12/03 07:00:24;;;;;;;6.32;4.90;;;;;;;;;;4531155;28;20060;-66
2022/12/03 07:02:35;;;;;;;6.88;4.82;;;;;;;;;;4530308;28;20041;-66
2022/12/03 07:04:45;;;;;;;6.57;4.80;;;;;;;;;;4528311;28;20033;-66
2022/12/03 07:06:55;;;;;;;7.35;5.22;;;;;;;;;;4529955;28;20052;-66
2022/12/03 07:09:05;;;;;;;7.18;5.00;;;;;;;;;;4529230;28;20067;-66
2022/12/03 07:11:31;;;;;;;6.80;4.53;;;;;;;;;;4528240;28;20489;-66
2022/12/03 07:13:41;;;;;;;7.15;5.10;;;;;;;;;;4529638;28;21145;-66
2022/12/03 07:15:51;;;;;;;7.25;4.97;;;;;;;;;;4513905;28;20042;-66
2022/12/03 07:18:02;;;;;;;7.55;4.97;;;;;;;;;;4529129;28;20053;-66
2022/12/03 07:20:12;;;;;;;6.63;4.70;;;;;;;;;;4514264;28;20038;-66
2022/12/03 07:22:23;;;;;;;6.85;4.90;;;;;;;;;;4528607;28;20045;-66
2022/12/03 07:24:33;;;;;;;7.20;5.05;;;;;;;;;;4525563;28;20036;-65
2022/12/03 07:26:43;;;;;;;2.00;1.50;;;;;;;;;;4532586;28;20123;-66
2022/12/03 07:28:54;;;;;;;1.42;1.20;;;;;;;;;;4530671;28;20045;-65
2022/12/03 07:31:04;;;;;;;1.95;1.45;;;;;;;;;;4531261;28;20134;-66
2022/12/03 07:33:14;;;;;;;2.95;1.60;;;;;;;;;;4532328;28;20042;-66
2022/12/03 07:35:24;;;;;;;1.67;1.40;;;;;;;;;;4532519;28;20041;-66
2022/12/03 07:37:35;;;;;;;2.08;1.52;;;;;;;;;;4515897;28;20041;-67
2022/12/03 07:39:45;;;;;;;1.70;1.40;;;;;;;;;;4530933;28;20099;-65
2022/12/03 07:41:55;;;;;;;2.05;1.48;;;;;;;;;;4530051;28;20108;-65
2022/12/03 07:44:06;;;;;;;2.05;1.55;;;;;;;;;;4530210;28;20029;-64
2022/12/03 07:46:16;;;;;;;1.75;1.38;;;;;;;;;;4530598;28;20033;-65
2022/12/03 07:48:26;;;;;;;3.40;2.83;;;;;;;;;;4532049;28;20092;-65
2022/12/03 07:50:37;;;;;;;6.10;4.63;;;;;;;;;;4532446;28;20041;-65
2022/12/03 07:52:47;;;;;;;6.97;4.90;;;;;;;;;;4531415;28;20437;-65
2022/12/03 07:54:57;;;;;;;7.15;5.00;;;;;;;;;;4531275;28;20034;-65
2022/12/03 07:57:11;;;;;;;6.90;4.75;;;;;;;;;;4531109;28;20045;-65
2022/12/03 07:59:21;;;;;;;6.95;5.07;;;;;;;;;;4531231;28;20624;-65
2022/12/03 08:01:31;;;;;;;6.68;4.88;;;;;;;;;;4530651;28;20041;-65
2022/12/03 08:03:42;;;;;;;6.82;4.80;;;;;;;;;;4529885;28;20068;-65
2022/12/03 08:05:52;;;;;;;6.47;5.07;;;;;;;;;;4531904;28;20070;-64
2022/12/03 08:08:02;;;;;;;7.40;5.13;;;;;;;;;;4517536;28;20021;-64
2022/12/03 08:10:12;;;;;;;6.97;5.18;;;;;;;;;;4530796;28;20049;-64
2022/12/03 08:12:38;;;;;;;6.65;4.88;;;;;;;;;;4531948;28;20033;-64
2022/12/03 08:14:49;;;;;;;7.10;5.07;;;;;;;;;;4516261;28;20037;-64
2022/12/03 08:16:59;;;;;;;7.20;5.00;;;;;;;;;;4531399;28;20064;-64
2022/12/03 08:19:11;;;;;;;7.55;4.78;;;;;;;;;;4531875;28;20461;-64
2022/12/03 08:21:21;;;;;;;6.65;4.88;;;;;;;;;;4516095;28;20201;-64
2022/12/03 08:23:33;;;;;;;7.32;5.03;;;;;;;;;;4529962;28;20096;-64
2022/12/03 08:25:44;;;;;;;7.00;5.25;;;;;;;;;;4527957;28;20041;-64
2022/12/03 08:28:00;;;;;;;7.60;5.25;;;;;;;;;;4529944;28;20033;-65
2022/12/03 08:30:12;;;;;;;7.25;5.10;;;;;;;;;;4529809;28;20549;-64
2022/12/03 08:32:22;;;;;;;7.45;4.95;;;;;;;;;;4529027;28;20037;-65
2022/12/03 08:34:37;;;;;;;7.60;5.32;;;;;;;;;;4530181;28;20045;-64
2022/12/03 08:36:55;;;;;;;7.70;5.00;;;;;;;;;;4530069;28;20047;-64
2022/12/03 08:39:26;;;;;;;7.20;5.20;;;;;;;;;;4530658;28;20069;-64
2022/12/03 08:44:17;;;;;;;7.82;5.03;;;;;;;;;;4531961;28;20120;-64
2022/12/03 08:46:28;;;;;;;7.50;5.20;;;;;;;;;;4528728;28;20073;-64
2022/12/03 08:48:39;;;;;;;6.78;4.95;;;;;;;;;;4514791;28;20525;-65
2022/12/03 08:50:49;;;;;;;6.97;4.95;;;;;;;;;;4532739;28;20036;-65
2022/12/03 08:53:10;;;;;;;6.35;4.65;;;;;;;;;;4531304;28;20320;-65
2022/12/03 08:55:34;;;;;;;6.60;4.95;;;;;;;;;;4530489;28;20049;-65
2022/12/03 08:57:44;;;;;;;6.65;4.63;;;;;;;;;;4530734;28;20111;-65
2022/12/03 08:59:57;;;;;;;7.03;5.03;;;;;;;;;;4530705;28;20037;-65
2022/12/03 09:02:12;;;;;;;5.85;4.47;;;;;;;;;;4529612;28;20037;-65
2022/12/03 09:04:25;;;;;;;6.60;5.03;;;;;;;;;;4530290;28;20080;-64
2022/12/03 09:06:35;;;;;;;7.43;5.18;;;;;;;;;;4530907;28;20082;-65
2022/12/03 09:08:45;;;;;;;7.00;4.80;;;;;;;;;;4532597;28;20053;-64
2022/12/03 09:10:56;;;;;;;7.00;4.72;;;;;;;;;;4531243;28;21084;-65
2022/12/03 09:13:06;;;;;;;7.03;5.00;;;;;;;;;;4529656;28;20029;-65
2022/12/03 09:15:16;;;;;;;7.38;5.40;;;;;;;;;;4530050;28;20100;-65
2022/12/03 09:17:27;;;;;;;7.30;5.20;;;;;;;;;;4529271;28;20049;-65
2022/12/03 09:19:43;;;;;;;7.97;5.28;;;;;;;;;;4529523;28;20040;-65
2022/12/03 09:21:53;;;;;;;7.03;4.95;;;;;;;;;;4531302;28;20036;-65
2022/12/03 09:24:04;;;;;;;7.22;5.32;;;;;;;;;;4532779;28;20040;-64
2022/12/03 09:26:14;;;;;;;6.97;5.15;;;;;;;;;;4531117;28;20037;-65
2022/12/03 09:28:25;;;;;;;7.22;5.38;;;;;;;;;;4531334;28;20459;-65
2022/12/03 09:30:35;;;;;;;6.22;4.75;;;;;;;;;;4529369;28;20117;-66
2022/12/03 09:32:45;;;;;;;6.85;5.05;;;;;;;;;;4531446;28;20410;-65
2022/12/03 09:34:56;;;;;;;6.95;5.03;;;;;;;;;;4530568;28;20033;-66
2022/12/03 09:37:06;;;;;;;6.25;4.90;;;;;;;;;;4531401;28;20041;-65
2022/12/03 09:39:16;;;;;;;6.75;4.95;;;;;;;;;;4530556;28;20032;-65
2022/12/03 09:41:27;;;;;;;7.22;4.80;;;;;;;;;;4528863;28;20124;-65
2022/12/03 09:43:37;;;;;;;6.88;5.05;;;;;;;;;;4530337;28;20096;-65
2022/12/03 09:45:48;;;;;;;5.95;4.50;;;;;;;;;;4531099;28;20056;-65
2022/12/03 09:47:59;;;;;;;6.75;4.85;;;;;;;;;;4530098;28;20432;-65
2022/12/03 09:50:13;;;;;;;6.95;5.18;;;;;;;;;;4529300;28;20098;-65
2022/12/03 09:52:25;;;;;;;7.15;5.18;;;;;;;;;;4527686;28;20196;-65
2022/12/03 09:54:37;;;;;;;6.30;4.60;;;;;;;;;;4529899;28;20029;-65
2022/12/03 09:56:50;;;;;;;6.43;4.60;;;;;;;;;;4528839;28;20038;-65
2022/12/03 09:59:01;;;;;;;5.72;4.47;;;;;;;;;;4530452;28;20033;-65
2022/12/03 10:01:13;;;;;;;6.40;4.70;;;;;;;;;;4529656;28;20040;-65
2022/12/03 10:03:24;;;;;;;6.70;4.90;;;;;;;;;;4530241;28;20117;-66
2022/12/03 10:05:34;;;;;;;6.38;4.68;;;;;;;;;;4528223;28;20049;-67
2022/12/03 10:07:45;;;;;;;5.93;4.32;;;;;;;;;;4528458;28;20029;-66
2022/12/03 10:09:55;;;;;;;6.75;5.07;;;;;;;;;;4526910;28;20478;-65
2022/12/03 10:12:09;;;;;;;6.60;4.72;;;;;;;;;;4529073;28;20389;-66
2022/12/03 10:14:19;;;;;;;5.15;4.07;;;;;;;;;;4508334;28;20030;-67
2022/12/03 10:16:30;;;;;;;5.90;4.35;;;;;;;;;;4528416;28;20048;-67
2022/12/03 10:18:58;;;;;;;5.95;4.25;;;;;;;;;;4484430;28;20057;-66
2022/12/03 10:21:18;;;;;;;6.55;4.38;;;;;;;;;;4513727;28;20171;-66
2022/12/03 10:23:30;;;;;;;6.93;4.40;;;;;;;;;;4528160;28;20072;-66
2022/12/03 10:25:50;;;;;;;5.63;4.38;;;;;;;;;;4529031;28;20580;-66
2022/12/03 10:28:02;;;;;;;6.25;4.50;;;;;;;;;;4529089;28;20045;-66
2022/12/03 10:30:18;;;;;;;5.70;4.45;;;;;;;;;;4526916;28;20049;-66
2022/12/03 10:32:42;;;;;;;5.65;4.45;;;;;;;;;;4527587;28;20029;-66
2022/12/03 10:35:06;;;;;;;5.95;4.38;;;;;;;;;;4525843;28;20555;-68
2022/12/03 10:37:17;;;;;;;5.05;4.00;;;;;;;;;;4512945;28;20149;-66
2022/12/03 10:39:27;;;;;;;5.65;4.25;;;;;;;;;;4526979;28;20144;-66
2022/12/03 10:41:38;;;;;;;5.47;4.18;;;;;;;;;;4528645;28;20493;-66
2022/12/03 10:43:48;;;;;;;4.95;4.15;;;;;;;;;;4529209;28;20739;-66
2022/12/03 10:46:02;;;;;;;5.63;4.10;;;;;;;;;;4528154;28;20564;-66
2022/12/03 10:48:13;;;;;;;5.47;3.88;;;;;;;;;;4528903;28;20044;-66
2022/12/03 10:50:24;;;;;;;5.22;4.00;;;;;;;;;;4528493;28;20872;-66
2022/12/03 10:52:34;;;;;;;6.00;4.30;;;;;;;;;;4512758;28;20105;-67
2022/12/03 10:54:44;;;;;;;5.13;3.83;;;;;;;;;;4527599;28;20029;-66
2022/12/03 10:56:55;;;;;;;4.90;3.80;;;;;;;;;;4528269;28;20108;-65
2022/12/03 10:59:08;;;;;;;5.35;4.22;;;;;;;;;;4528140;28;20584;-68
2022/12/03 11:01:20;;;;;;;4.97;3.90;;;;;;;;;;4528432;28;20033;-67
2022/12/03 11:03:34;;;;;;;6.40;4.40;;;;;;;;;;4531776;28;20034;-67
2022/12/03 11:05:44;;;;;;;5.72;4.15;;;;;;;;;;4531379;28;20092;-67
2022/12/03 11:07:55;;;;;;;5.28;4.10;;;;;;;;;;4531678;28;20085;-67
2022/12/03 11:10:11;;;;;;;5.45;4.10;;;;;;;;;;4532356;28;20038;-67
2022/12/03 11:12:26;;;;;;;5.47;3.97;;;;;;;;;;4531900;28;20706;-67
2022/12/03 11:14:55;;;;;;;4.97;3.80;;;;;;;;;;4531316;28;20041;-67
2022/12/03 11:17:06;;;;;;;5.25;3.97;;;;;;;;;;4533877;28;20683;-67
2022/12/03 11:19:17;;;;;;;5.38;4.00;;;;;;;;;;4528402;28;20030;-67
2022/12/03 11:21:28;;;;;;;4.78;3.90;;;;;;;;;;4531642;28;20137;-66
2022/12/03 11:23:45;;;;;;;5.47;4.00;;;;;;;;;;4516686;28;20496;-67
2022/12/03 11:25:55;;;;;;;6.30;4.15;;;;;;;;;;4532412;28;20540;-68
2022/12/03 11:28:11;;;;;;;5.47;3.97;;;;;;;;;;4530336;28;20100;-67
2022/12/03 11:30:41;;;;;;;5.13;3.75;;;;;;;;;;4530310;28;20041;-68
2022/12/03 11:32:54;;;;;;;4.80;3.80;;;;;;;;;;4531104;28;20033;-67
2022/12/03 11:35:10;;;;;;;5.30;4.22;;;;;;;;;;4530696;28;20172;-67
2022/12/03 11:37:21;;;;;;;5.20;4.18;;;;;;;;;;4531567;28;20516;-67
2022/12/03 11:39:43;;;;;;;4.90;3.88;;;;;;;;;;4530978;28;20409;-67
2022/12/03 11:42:24;;;;;;;5.78;4.00;;;;;;;;;;4516892;28;20061;-67
2022/12/03 11:44:35;;;;;;;5.78;4.35;;;;;;;;;;4531297;28;20030;-68
2022/12/03 11:46:46;;;;;;;4.97;3.90;;;;;;;;;;4530219;28;20128;-67
2022/12/03 11:48:57;;;;;;;5.50;4.10;;;;;;;;;;4531065;28;20116;-67
2022/12/03 11:51:12;;;;;;;5.43;4.28;;;;;;;;;;4529825;28;20555;-67
2022/12/03 11:53:24;;;;;;;5.22;4.13;;;;;;;;;;4515703;28;20044;-67
2022/12/03 11:55:36;;;;;;;5.47;4.00;;;;;;;;;;4531837;28;20590;-67
2022/12/03 11:57:46;;;;;;;5.70;4.18;;;;;;;;;;4530847;28;20052;-68
2022/12/03 11:59:58;;;;;;;4.95;3.97;;;;;;;;;;4531479;28;20247;-67
2022/12/03 12:02:20;;;;;;;5.50;3.80;;;;;;;;;;4529996;28;20041;-67
2022/12/03 12:04:32;;;;;;;5.47;4.20;;;;;;;;;;4531390;28;20029;-69
2022/12/03 12:06:43;;;;;;;5.05;4.07;;;;;;;;;;4529867;28;20565;-69
2022/12/03 12:08:55;;;;;;;5.78;4.18;;;;;;;;;;4530312;28;20038;-68
2022/12/03 12:11:19;;;;;;;4.97;3.97;;;;;;;;;;4530092;28;20037;-67
2022/12/03 12:13:29;;;;;;;5.10;4.00;;;;;;;;;;4531030;28;20624;-68
2022/12/03 12:15:42;;;;;;;5.50;4.03;;;;;;;;;;4531103;28;20080;-67
2022/12/03 12:17:52;;;;;;;4.97;3.90;;;;;;;;;;4530670;28;20042;-67
2022/12/03 12:20:12;;;;;;;5.00;3.97;;;;;;;;;;4530361;28;20038;-67
2022/12/03 12:22:25;;;;;;;4.93;3.72;;;;;;;;;;4530778;28;20041;-67
2022/12/03 12:24:44;;;;;;;5.40;4.20;;;;;;;;;;4514531;28;20136;-67
2022/12/03 12:26:55;;;;;;;4.80;3.85;;;;;;;;;;4515502;28;20038;-67
2022/12/03 12:29:05;;;;;;;4.93;3.97;;;;;;;;;;4515557;28;20041;-67
2022/12/03 12:31:17;;;;;;;5.05;3.85;;;;;;;;;;4529808;28;20106;-67
2022/12/03 12:33:27;;;;;;;4.95;3.88;;;;;;;;;;4530103;28;20094;-67
2022/12/03 12:35:37;;;;;;;5.05;4.00;;;;;;;;;;4530897;28;20031;-67
2022/12/03 12:37:52;;;;;;;4.13;3.50;;;;;;;;;;4528168;28;20095;-67
2022/12/03 12:40:10;;;;;;;6.03;3.90;;;;;;;;;;4531288;28;20596;-67
2022/12/03 12:42:24;;;;;;;4.72;3.60;;;;;;;;;;4529423;28;20048;-67
2022/12/03 12:44:34;;;;;;;4.55;3.50;;;;;;;;;;4529873;28;20036;-67
2022/12/03 12:46:45;;;;;;;4.97;3.88;;;;;;;;;;4531048;28;20093;-67
2022/12/03 12:48:55;;;;;;;4.63;3.63;;;;;;;;;;4514789;28;20589;-67
2022/12/03 12:51:13;;;;;;;4.63;3.60;;;;;;;;;;4529754;28;20029;-67
2022/12/03 12:53:29;;;;;;;4.70;3.58;;;;;;;;;;4529358;28;20856;-67
2022/12/03 12:55:39;;;;;;;4.38;3.78;;;;;;;;;;4531228;28;20072;-67
2022/12/03 12:57:50;;;;;;;4.97;3.63;;;;;;;;;;4530107;28;20045;-67
2022/12/03 13:00:01;;;;;;;5.40;4.43;;;;;;;;;;4530883;28;20053;-68
2022/12/03 13:02:29;;;;;;;4.95;3.80;;;;;;;;;;4530893;28;20048;-68
2022/12/03 13:04:40;;;;;;;5.03;4.00;;;;;;;;;;4530435;28;20033;-68
2022/12/03 13:06:51;;;;;;;4.47;3.80;;;;;;;;;;4529434;28;20049;-67
2022/12/03 13:09:01;;;;;;;4.40;3.75;;;;;;;;;;4530057;28;20051;-67
2022/12/03 13:11:23;;;;;;;5.05;4.05;;;;;;;;;;4529179;28;20051;-68
2022/12/03 13:13:36;;;;;;;4.32;3.72;;;;;;;;;;4528176;28;20042;-67
2022/12/03 13:15:47;;;;;;;4.80;3.67;;;;;;;;;;4530065;28;20072;-68
2022/12/03 13:17:58;;;;;;;4.82;3.95;;;;;;;;;;4515323;28;20159;-67
2022/12/03 13:20:14;;;;;;;4.93;4.00;;;;;;;;;;4529316;28;20100;-67
2022/12/03 13:22:26;;;;;;;4.95;3.72;;;;;;;;;;4529846;28;20042;-67
2022/12/03 13:24:37;;;;;;;4.70;3.70;;;;;;;;;;4530197;28;20046;-68
2022/12/03 13:26:47;;;;;;;4.50;3.63;;;;;;;;;;4529917;28;20037;-67
2022/12/03 13:29:00;;;;;;;5.00;3.70;;;;;;;;;;4530707;28;20495;-68
2022/12/03 13:31:17;;;;;;;4.80;4.13;;;;;;;;;;4529295;28;20603;-67